sensor_id;sensor_type;location;lat;lon;timestamp;pressure;altitude;pressure_sealevel;temperature;humidity
62124;BME280;48110;47.532;19.078;2023-02-19T00:02:52;100444.66;;;11.57;79.52
62124;BME280;48110;47.532;19.078;2023-02-19T00:06:04;100439.41;;;11.49;79.45
62124;BME280;48110;47.532;19.078;2023-02-19T00:09:10;100443.72;;;11.50;78.50
62124;BME280;48110;47.532;19.078;2023-02-19T00:12:20;100440.22;;;11.50;78.42
62124;BME280;48110;47.532;19.078;2023-02-19T00:15:30;100444.41;;;11.44;79.14
62124;BME280;48110;47.532;19.078;2023-02-19T00:18:41;100445.75;;;11.40;79.25
62124;BME280;48110;47.532;19.078;2023-02-19T00:21:51;100440.22;;;11.50;79.08
62124;BME280;48110;47.532;19.078;2023-02-19T00:25:00;100439.88;;;11.53;78.85
62124;BME280;48110;47.532;19.078;2023-02-19T00:28:07;100441.91;;;11.43;79.76
62124;BME280;48110;47.532;19.078;2023-02-19T00:31:21;100429.97;;;11.39;80.04
62124;BME280;48110;47.532;19.078;2023-02-19T00:34:27;100422.88;;;11.31;80.48
62124;BME280;48110;47.532;19.078;2023-02-19T00:37:34;100426.34;;;11.31;80.49
62124;BME280;48110;47.532;19.078;2023-02-19T00:40:42;100425.03;;;11.27;80.17
62124;BME280;48110;47.532;19.078;2023-02-19T00:43:59;100430.69;;;11.24;80.42
62124;BME280;48110;47.532;19.078;2023-02-19T00:47:09;100433.66;;;11.29;79.82
62124;BME280;48110;47.532;19.078;2023-02-19T00:50:21;100435.69;;;11.11;81.09
62124;BME280;48110;47.532;19.078;2023-02-19T00:53:26;100435.22;;;11.08;81.47
62124;BME280;48110;47.532;19.078;2023-02-19T00:56:35;100446.00;;;11.06;81.68
62124;BME280;48110;47.532;19.078;2023-02-19T00:59:40;100436.38;;;11.05;81.25
62124;BME280;48110;47.532;19.078;2023-02-19T01:02:48;100442.00;;;11.10;80.92
62124;BME280;48110;47.532;19.078;2023-02-19T01:05:55;100438.84;;;11.23;80.58
62124;BME280;48110;47.532;19.078;2023-02-19T01:09:03;100453.09;;;11.14;80.75
62124;BME280;48110;47.532;19.078;2023-02-19T01:12:09;100442.34;;;10.99;82.06
62124;BME280;48110;47.532;19.078;2023-02-19T01:15:15;100428.94;;;10.93;82.67
62124;BME280;48110;47.532;19.078;2023-02-19T01:18:20;100424.94;;;10.97;82.65
62124;BME280;48110;47.532;19.078;2023-02-19T01:21:28;100431.56;;;11.01;82.97
62124;BME280;48110;47.532;19.078;2023-02-19T01:24:37;100422.28;;;11.05;83.50
62124;BME280;48110;47.532;19.078;2023-02-19T01:27:48;100420.41;;;11.21;82.36
62124;BME280;48110;47.532;19.078;2023-02-19T01:30:52;100419.38;;;11.30;81.95
62124;BME280;48110;47.532;19.078;2023-02-19T01:33:58;100416.22;;;11.35;81.35
62124;BME280;48110;47.532;19.078;2023-02-19T01:37:06;100420.22;;;11.31;81.71
62124;BME280;48110;47.532;19.078;2023-02-19T01:40:15;100417.25;;;11.26;82.01
62124;BME280;48110;47.532;19.078;2023-02-19T01:43:23;100419.94;;;11.18;82.69
62124;BME280;48110;47.532;19.078;2023-02-19T01:46:28;100425.88;;;11.20;82.91
62124;BME280;48110;47.532;19.078;2023-02-19T01:49:35;100436.19;;;11.15;82.71
62124;BME280;48110;47.532;19.078;2023-02-19T01:52:40;100432.75;;;10.98;84.21
62124;BME280;48110;47.532;19.078;2023-02-19T01:55:45;100424.81;;;10.82;85.30
62124;BME280;48110;47.532;19.078;2023-02-19T01:58:53;100427.81;;;10.71;86.51
62124;BME280;48110;47.532;19.078;2023-02-19T02:01:56;100433.31;;;10.45;88.39
62124;BME280;48110;47.532;19.078;2023-02-19T02:05:07;100424.34;;;10.38;90.21
62124;BME280;48110;47.532;19.078;2023-02-19T02:08:18;100411.75;;;10.64;88.12
62124;BME280;48110;47.532;19.078;2023-02-19T02:11:47;100404.25;;;10.68;88.38
62124;BME280;48110;47.532;19.078;2023-02-19T02:14:56;100397.28;;;10.83;87.43
62124;BME280;48110;47.532;19.078;2023-02-19T02:18:04;100399.56;;;10.94;87.17
62124;BME280;48110;47.532;19.078;2023-02-19T02:24:58;100394.09;;;10.96;88.01
62124;BME280;48110;47.532;19.078;2023-02-19T02:31:29;100379.41;;;10.69;90.33
62124;BME280;48110;47.532;19.078;2023-02-19T02:34:44;100384.66;;;10.85;89.78
62124;BME280;48110;47.532;19.078;2023-02-19T02:37:54;100385.50;;;10.77;89.90
62124;BME280;48110;47.532;19.078;2023-02-19T02:41:06;100376.88;;;10.83;89.12
62124;BME280;48110;47.532;19.078;2023-02-19T02:44:16;100383.53;;;10.79;88.78
62124;BME280;48110;47.532;19.078;2023-02-19T02:47:23;100387.62;;;10.90;87.91
62124;BME280;48110;47.532;19.078;2023-02-19T02:50:51;100401.72;;;10.90;87.79
62124;BME280;48110;47.532;19.078;2023-02-19T02:54:05;100395.59;;;10.98;87.29
62124;BME280;48110;47.532;19.078;2023-02-19T02:57:31;100400.41;;;10.86;88.74
62124;BME280;48110;47.532;19.078;2023-02-19T03:00:38;100411.56;;;10.66;90.99
62124;BME280;48110;47.532;19.078;2023-02-19T03:04:07;100409.25;;;10.55;92.92
62124;BME280;48110;47.532;19.078;2023-02-19T03:07:17;100411.91;;;10.55;94.20
62124;BME280;48110;47.532;19.078;2023-02-19T03:10:28;100419.34;;;10.51;95.08
62124;BME280;48110;47.532;19.078;2023-02-19T03:13:40;100416.53;;;10.53;95.47
62124;BME280;48110;47.532;19.078;2023-02-19T03:17:15;100411.41;;;10.67;94.45
62124;BME280;48110;47.532;19.078;2023-02-19T03:20:42;100412.72;;;10.79;93.46
62124;BME280;48110;47.532;19.078;2023-02-19T03:23:53;100399.94;;;10.83;92.99
62124;BME280;48110;47.532;19.078;2023-02-19T03:27:21;100407.72;;;10.93;91.65
62124;BME280;48110;47.532;19.078;2023-02-19T03:30:37;100417.84;;;10.89;91.92
62124;BME280;48110;47.532;19.078;2023-02-19T03:33:52;100427.63;;;10.72;93.53
62124;BME280;48110;47.532;19.078;2023-02-19T03:37:05;100420.03;;;10.69;93.79
62124;BME280;48110;47.532;19.078;2023-02-19T03:40:14;100414.53;;;10.79;93.14
62124;BME280;48110;47.532;19.078;2023-02-19T03:50:14;100428.81;;;10.54;94.25
62124;BME280;48110;47.532;19.078;2023-02-19T03:53:31;100431.97;;;10.57;94.57
62124;BME280;48110;47.532;19.078;2023-02-19T03:56:49;100437.09;;;10.51;94.90
62124;BME280;48110;47.532;19.078;2023-02-19T04:00:11;100424.97;;;10.32;96.27
62124;BME280;48110;47.532;19.078;2023-02-19T04:03:23;100419.69;;;10.32;96.97
62124;BME280;48110;47.532;19.078;2023-02-19T04:06:33;100419.03;;;10.46;96.31
62124;BME280;48110;47.532;19.078;2023-02-19T04:09:54;100418.22;;;10.45;96.37
62124;BME280;48110;47.532;19.078;2023-02-19T04:13:05;100418.22;;;10.45;96.51
62124;BME280;48110;47.532;19.078;2023-02-19T04:16:16;100421.16;;;10.26;98.04
62124;BME280;48110;47.532;19.078;2023-02-19T04:19:24;100424.84;;;10.33;98.36
62124;BME280;48110;47.532;19.078;2023-02-19T04:22:32;100420.84;;;10.29;98.29
62124;BME280;48110;47.532;19.078;2023-02-19T04:25:40;100422.19;;;10.33;98.01
62124;BME280;48110;47.532;19.078;2023-02-19T04:28:50;100431.13;;;10.32;98.55
62124;BME280;48110;47.532;19.078;2023-02-19T04:31:59;100425.34;;;10.21;98.67
62124;BME280;48110;47.532;19.078;2023-02-19T04:35:10;100426.94;;;10.14;99.18
62124;BME280;48110;47.532;19.078;2023-02-19T04:38:18;100430.88;;;9.93;100.00
62124;BME280;48110;47.532;19.078;2023-02-19T04:41:25;100420.25;;;9.93;100.00
62124;BME280;48110;47.532;19.078;2023-02-19T04:44:35;100422.91;;;9.77;100.00
62124;BME280;48110;47.532;19.078;2023-02-19T04:47:43;100428.72;;;9.89;100.00
62124;BME280;48110;47.532;19.078;2023-02-19T04:50:50;100421.09;;;9.94;100.00
62124;BME280;48110;47.532;19.078;2023-02-19T04:53:57;100428.06;;;9.87;100.00
62124;BME280;48110;47.532;19.078;2023-02-19T04:57:05;100423.06;;;9.84;100.00
62124;BME280;48110;47.532;19.078;2023-02-19T05:00:14;100424.91;;;9.91;100.00
62124;BME280;48110;47.532;19.078;2023-02-19T05:03:21;100414.97;;;9.93;100.00
62124;BME280;48110;47.532;19.078;2023-02-19T05:06:32;100408.06;;;10.17;98.83
62124;BME280;48110;47.532;19.078;2023-02-19T05:09:38;100408.53;;;10.12;98.95
62124;BME280;48110;47.532;19.078;2023-02-19T05:12:50;100405.41;;;10.17;98.18
62124;BME280;48110;47.532;19.078;2023-02-19T05:16:02;100399.97;;;10.18;97.54
62124;BME280;48110;47.532;19.078;2023-02-19T05:19:12;100413.69;;;10.06;98.61
62124;BME280;48110;47.532;19.078;2023-02-19T05:22:19;100406.25;;;10.17;98.01
62124;BME280;48110;47.532;19.078;2023-02-19T05:25:26;100417.81;;;10.08;98.28
62124;BME280;48110;47.532;19.078;2023-02-19T05:28:35;100418.38;;;10.20;97.12
62124;BME280;48110;47.532;19.078;2023-02-19T05:31:44;100426.66;;;10.33;96.29
62124;BME280;48110;47.532;19.078;2023-02-19T05:34:52;100424.31;;;10.46;94.79
62124;BME280;48110;47.532;19.078;2023-02-19T05:38:01;100427.50;;;10.50;94.46
62124;BME280;48110;47.532;19.078;2023-02-19T05:41:11;100421.50;;;10.56;94.00
62124;BME280;48110;47.532;19.078;2023-02-19T05:44:21;100423.34;;;10.55;94.50
62124;BME280;48110;47.532;19.078;2023-02-19T05:47:26;100414.91;;;10.60;95.20
62124;BME280;48110;47.532;19.078;2023-02-19T05:50:34;100405.44;;;10.57;96.41
62124;BME280;48110;47.532;19.078;2023-02-19T05:53:46;100415.53;;;10.62;97.45
62124;BME280;48110;47.532;19.078;2023-02-19T05:56:54;100425.16;;;10.63;98.86
62124;BME280;48110;47.532;19.078;2023-02-19T06:00:02;100409.75;;;10.58;100.00
62124;BME280;48110;47.532;19.078;2023-02-19T06:03:14;100418.84;;;10.56;100.00
62124;BME280;48110;47.532;19.078;2023-02-19T06:06:22;100430.63;;;10.53;100.00
62124;BME280;48110;47.532;19.078;2023-02-19T06:09:30;100433.94;;;10.63;100.00
62124;BME280;48110;47.532;19.078;2023-02-19T06:12:39;100432.63;;;10.51;100.00
62124;BME280;48110;47.532;19.078;2023-02-19T06:15:48;100441.59;;;10.50;100.00
62124;BME280;48110;47.532;19.078;2023-02-19T06:18:54;100431.78;;;10.51;100.00
62124;BME280;48110;47.532;19.078;2023-02-19T06:22:00;100420.88;;;10.45;100.00
62124;BME280;48110;47.532;19.078;2023-02-19T06:25:10;100413.22;;;10.42;100.00
62124;BME280;48110;47.532;19.078;2023-02-19T06:28:19;100404.44;;;10.42;100.00
62124;BME280;48110;47.532;19.078;2023-02-19T06:31:26;100401.31;;;10.30;100.00
62124;BME280;48110;47.532;19.078;2023-02-19T06:34:34;100405.09;;;10.20;100.00
62124;BME280;48110;47.532;19.078;2023-02-19T06:37:44;100398.81;;;10.21;100.00
62124;BME280;48110;47.532;19.078;2023-02-19T06:40:52;100399.31;;;10.24;100.00
62124;BME280;48110;47.532;19.078;2023-02-19T06:43:59;100395.47;;;10.27;100.00
62124;BME280;48110;47.532;19.078;2023-02-19T06:47:12;100389.53;;;10.25;100.00
62124;BME280;48110;47.532;19.078;2023-02-19T06:50:19;100389.34;;;10.26;100.00
62124;BME280;48110;47.532;19.078;2023-02-19T06:53:26;100393.31;;;10.22;100.00
62124;BME280;48110;47.532;19.078;2023-02-19T06:56:36;100401.47;;;10.21;100.00
62124;BME280;48110;47.532;19.078;2023-02-19T06:59:48;100412.41;;;10.26;100.00
62124;BME280;48110;47.532;19.078;2023-02-19T07:03:00;100400.28;;;10.31;100.00
62124;BME280;48110;47.532;19.078;2023-02-19T07:06:08;100394.50;;;10.28;100.00
62124;BME280;48110;47.532;19.078;2023-02-19T07:09:16;100406.63;;;10.30;100.00
62124;BME280;48110;47.532;19.078;2023-02-19T07:12:24;100408.09;;;10.41;100.00
62124;BME280;48110;47.532;19.078;2023-02-19T07:15:31;100406.78;;;10.45;100.00
62124;BME280;48110;47.532;19.078;2023-02-19T07:18:38;100407.25;;;10.49;100.00
62124;BME280;48110;47.532;19.078;2023-02-19T07:21:48;100403.75;;;10.56;100.00
62124;BME280;48110;47.532;19.078;2023-02-19T07:24:57;100406.25;;;10.58;100.00
62124;BME280;48110;47.532;19.078;2023-02-19T07:28:09;100406.91;;;10.68;100.00
62124;BME280;48110;47.532;19.078;2023-02-19T07:31:17;100395.12;;;10.78;100.00
62124;BME280;48110;47.532;19.078;2023-02-19T07:34:27;100395.94;;;10.87;100.00
62124;BME280;48110;47.532;19.078;2023-02-19T07:37:33;100390.78;;;10.85;100.00
62124;BME280;48110;47.532;19.078;2023-02-19T07:40:41;100389.28;;;10.91;100.00
62124;BME280;48110;47.532;19.078;2023-02-19T07:43:56;100381.56;;;10.49;100.00
62124;BME280;48110;47.532;19.078;2023-02-19T07:47:05;100377.41;;;10.06;100.00
62124;BME280;48110;47.532;19.078;2023-02-19T07:50:14;100379.19;;;9.97;100.00
62124;BME280;48110;47.532;19.078;2023-02-19T07:53:23;100380.53;;;10.01;100.00
62124;BME280;48110;47.532;19.078;2023-02-19T07:56:31;100392.47;;;10.14;100.00
62124;BME280;48110;47.532;19.078;2023-02-19T07:59:40;100394.66;;;10.18;100.00
62124;BME280;48110;47.532;19.078;2023-02-19T08:02:48;100401.47;;;10.29;100.00
62124;BME280;48110;47.532;19.078;2023-02-19T08:06:08;100396.31;;;10.43;100.00
62124;BME280;48110;47.532;19.078;2023-02-19T08:09:19;100422.16;;;10.41;100.00
62124;BME280;48110;47.532;19.078;2023-02-19T08:12:25;100417.88;;;10.40;100.00
62124;BME280;48110;47.532;19.078;2023-02-19T08:15:52;100427.13;;;10.36;100.00
62124;BME280;48110;47.532;19.078;2023-02-19T08:19:15;100423.59;;;9.95;100.00
62124;BME280;48110;47.532;19.078;2023-02-19T08:22:23;100419.69;;;9.57;100.00
62124;BME280;48110;47.532;19.078;2023-02-19T08:25:32;100433.41;;;9.53;100.00
62124;BME280;48110;47.532;19.078;2023-02-19T08:28:39;100430.19;;;9.33;100.00
62124;BME280;48110;47.532;19.078;2023-02-19T08:31:50;100432.41;;;9.20;100.00
62124;BME280;48110;47.532;19.078;2023-02-19T08:34:59;100436.00;;;9.45;100.00
62124;BME280;48110;47.532;19.078;2023-02-19T08:38:12;100440.09;;;9.31;100.00
62124;BME280;48110;47.532;19.078;2023-02-19T08:41:18;100440.22;;;9.30;100.00
62124;BME280;48110;47.532;19.078;2023-02-19T08:44:25;100426.19;;;9.29;100.00
62124;BME280;48110;47.532;19.078;2023-02-19T08:47:35;100420.09;;;9.37;100.00
62124;BME280;48110;47.532;19.078;2023-02-19T08:50:44;100404.22;;;9.45;100.00
62124;BME280;48110;47.532;19.078;2023-02-19T08:53:50;100419.13;;;9.46;100.00
62124;BME280;48110;47.532;19.078;2023-02-19T08:56:58;100410.53;;;9.44;100.00
62124;BME280;48110;47.532;19.078;2023-02-19T09:00:05;100411.66;;;9.41;100.00
62124;BME280;48110;47.532;19.078;2023-02-19T09:03:12;100411.34;;;9.44;100.00
62124;BME280;48110;47.532;19.078;2023-02-19T09:06:21;100412.00;;;9.38;100.00
62124;BME280;48110;47.532;19.078;2023-02-19T09:09:29;100413.94;;;9.28;100.00
62124;BME280;48110;47.532;19.078;2023-02-19T09:12:37;100415.91;;;9.26;100.00
62124;BME280;48110;47.532;19.078;2023-02-19T09:15:48;100418.69;;;9.25;100.00
62124;BME280;48110;47.532;19.078;2023-02-19T09:18:54;100417.22;;;9.22;100.00
62124;BME280;48110;47.532;19.078;2023-02-19T09:22:02;100408.75;;;9.19;100.00
62124;BME280;48110;47.532;19.078;2023-02-19T09:25:09;100403.63;;;9.17;100.00
62124;BME280;48110;47.532;19.078;2023-02-19T09:28:17;100412.53;;;9.16;100.00
62124;BME280;48110;47.532;19.078;2023-02-19T09:31:22;100422.88;;;9.27;100.00
62124;BME280;48110;47.532;19.078;2023-02-19T09:34:30;100407.00;;;9.35;100.00
62124;BME280;48110;47.532;19.078;2023-02-19T09:37:38;100421.75;;;9.38;100.00
62124;BME280;48110;47.532;19.078;2023-02-19T09:40:45;100408.34;;;9.39;100.00
62124;BME280;48110;47.532;19.078;2023-02-19T09:43:53;100394.47;;;9.45;100.00
62124;BME280;48110;47.532;19.078;2023-02-19T09:47:02;100387.38;;;9.54;100.00
62124;BME280;48110;47.532;19.078;2023-02-19T09:50:14;100394.41;;;9.71;100.00
62124;BME280;48110;47.532;19.078;2023-02-19T09:53:22;100391.12;;;9.85;100.00
62124;BME280;48110;47.532;19.078;2023-02-19T09:56:31;100376.44;;;10.31;100.00
62124;BME280;48110;47.532;19.078;2023-02-19T09:59:40;100378.69;;;10.75;100.00
62124;BME280;48110;47.532;19.078;2023-02-19T10:02:46;100376.41;;;11.19;100.00
62124;BME280;48110;47.532;19.078;2023-02-19T10:05:58;100366.56;;;11.36;100.00
62124;BME280;48110;47.532;19.078;2023-02-19T10:09:21;100364.34;;;11.16;100.00
62124;BME280;48110;47.532;19.078;2023-02-19T10:12:30;100356.88;;;11.12;100.00
62124;BME280;48110;47.532;19.078;2023-02-19T10:15:46;100346.13;;;11.05;100.00
62124;BME280;48110;47.532;19.078;2023-02-19T10:18:54;100330.59;;;11.25;100.00
62124;BME280;48110;47.532;19.078;2023-02-19T10:22:00;100339.94;;;11.52;100.00
62124;BME280;48110;47.532;19.078;2023-02-19T10:25:08;100321.59;;;11.65;100.00
62124;BME280;48110;47.532;19.078;2023-02-19T10:28:17;100326.00;;;11.81;100.00
62124;BME280;48110;47.532;19.078;2023-02-19T10:31:24;100312.28;;;12.14;100.00
62124;BME280;48110;47.532;19.078;2023-02-19T10:34:29;100297.72;;;12.40;100.00
62124;BME280;48110;47.532;19.078;2023-02-19T10:37:43;100300.75;;;12.37;100.00
62124;BME280;48110;47.532;19.078;2023-02-19T10:40:50;100270.91;;;12.12;100.00
62124;BME280;48110;47.532;19.078;2023-02-19T10:44:08;100277.13;;;12.04;100.00
62124;BME280;48110;47.532;19.078;2023-02-19T10:47:17;100271.59;;;12.06;100.00
62124;BME280;48110;47.532;19.078;2023-02-19T10:50:25;100267.87;;;12.00;100.00
62124;BME280;48110;47.532;19.078;2023-02-19T10:56:46;100259.66;;;11.87;100.00
62124;BME280;48110;47.532;19.078;2023-02-19T10:59:50;100255.91;;;11.96;100.00
62124;BME280;48110;47.532;19.078;2023-02-19T11:03:13;100243.31;;;12.13;100.00
62124;BME280;48110;47.532;19.078;2023-02-19T11:06:20;100240.28;;;12.31;100.00
62124;BME280;48110;47.532;19.078;2023-02-19T11:09:40;100245.91;;;12.50;100.00
62124;BME280;48110;47.532;19.078;2023-02-19T11:12:48;100233.25;;;12.67;100.00
62124;BME280;48110;47.532;19.078;2023-02-19T11:15:56;100244.78;;;12.74;100.00
62124;BME280;48110;47.532;19.078;2023-02-19T11:19:03;100232.03;;;12.84;100.00
62124;BME280;48110;47.532;19.078;2023-02-19T11:25:33;100223.09;;;13.06;100.00
62124;BME280;48110;47.532;19.078;2023-02-19T11:28:41;100209.94;;;13.41;100.00
62124;BME280;48110;47.532;19.078;2023-02-19T11:31:48;100205.75;;;15.25;87.41
62124;BME280;48110;47.532;19.078;2023-02-19T11:35:15;100209.34;;;15.85;75.36
62124;BME280;48110;47.532;19.078;2023-02-19T11:38:21;100203.37;;;16.93;68.97
62124;BME280;48110;47.532;19.078;2023-02-19T11:48:03;100194.69;;;17.35;63.15
62124;BME280;48110;47.532;19.078;2023-02-19T11:51:20;100190.88;;;19.57;56.37
62124;BME280;48110;47.532;19.078;2023-02-19T11:57:40;100178.16;;;19.64;49.94
62124;BME280;48110;47.532;19.078;2023-02-19T12:00:54;100164.84;;;18.79;51.57
62124;BME280;48110;47.532;19.078;2023-02-19T12:10:50;100173.94;;;18.05;53.13
62124;BME280;48110;47.532;19.078;2023-02-19T12:14:02;100164.38;;;19.30;50.48
62124;BME280;48110;47.532;19.078;2023-02-19T12:44:00;100183.13;;;18.89;50.52
62124;BME280;48110;47.532;19.078;2023-02-19T12:47:14;100189.84;;;18.43;51.63
62124;BME280;48110;47.532;19.078;2023-02-19T12:50:25;100177.62;;;18.47;53.23
62124;BME280;48110;47.532;19.078;2023-02-19T12:57:01;100190.63;;;12.82;100.00
62124;BME280;48110;47.532;19.078;2023-02-19T13:03:30;100196.59;;;11.36;100.00
62124;BME280;48110;47.532;19.078;2023-02-19T13:06:43;100205.97;;;11.23;100.00
62124;BME280;48110;47.532;19.078;2023-02-19T13:09:58;100183.03;;;11.00;100.00
62124;BME280;48110;47.532;19.078;2023-02-19T13:13:07;100180.16;;;11.09;100.00
62124;BME280;48110;47.532;19.078;2023-02-19T13:16:21;100180.69;;;11.73;100.00
62124;BME280;48110;47.532;19.078;2023-02-19T13:19:29;100175.38;;;13.75;99.82
62124;BME280;48110;47.532;19.078;2023-02-19T13:22:38;100192.56;;;14.28;92.62
62124;BME280;48110;47.532;19.078;2023-02-19T13:29:28;100188.91;;;12.30;100.00
62124;BME280;48110;47.532;19.078;2023-02-19T13:39:12;100177.97;;;11.58;100.00
62124;BME280;48110;47.532;19.078;2023-02-19T13:42:32;100192.87;;;10.91;100.00
62124;BME280;48110;47.532;19.078;2023-02-19T13:45:42;100199.28;;;10.74;100.00
62124;BME280;48110;47.532;19.078;2023-02-19T13:49:01;100215.19;;;10.27;100.00
62124;BME280;48110;47.532;19.078;2023-02-19T14:05:08;100220.37;;;9.64;100.00
62124;BME280;48110;47.532;19.078;2023-02-19T14:08:15;100245.06;;;9.72;100.00
62124;BME280;48110;47.532;19.078;2023-02-19T14:14:54;100276.03;;;9.72;100.00
62124;BME280;48110;47.532;19.078;2023-02-19T14:18:16;100261.97;;;9.87;100.00
62124;BME280;48110;47.532;19.078;2023-02-19T14:21:36;100278.00;;;10.10;100.00
62124;BME280;48110;47.532;19.078;2023-02-19T14:24:45;100289.13;;;10.30;100.00
62124;BME280;48110;47.532;19.078;2023-02-19T14:34:22;100298.50;;;10.65;100.00
62124;BME280;48110;47.532;19.078;2023-02-19T14:37:31;100312.03;;;10.70;100.00
62124;BME280;48110;47.532;19.078;2023-02-19T14:40:40;100318.78;;;10.97;100.00
62124;BME280;48110;47.532;19.078;2023-02-19T14:43:51;100328.00;;;11.17;100.00
62124;BME280;48110;47.532;19.078;2023-02-19T14:50:15;100335.06;;;10.94;100.00
62124;BME280;48110;47.532;19.078;2023-02-19T14:53:24;100333.19;;;10.94;100.00
62124;BME280;48110;47.532;19.078;2023-02-19T14:56:34;100319.56;;;11.05;100.00
62124;BME280;48110;47.532;19.078;2023-02-19T14:59:50;100320.44;;;10.98;100.00
62124;BME280;48110;47.532;19.078;2023-02-19T15:02:59;100323.97;;;10.82;100.00
62124;BME280;48110;47.532;19.078;2023-02-19T15:06:12;100326.84;;;10.56;100.00
62124;BME280;48110;47.532;19.078;2023-02-19T15:09:22;100326.34;;;10.53;100.00
62124;BME280;48110;47.532;19.078;2023-02-19T15:12:38;100336.31;;;10.42;100.00
62124;BME280;48110;47.532;19.078;2023-02-19T15:15:47;100342.78;;;10.32;100.00
62124;BME280;48110;47.532;19.078;2023-02-19T15:18:54;100356.38;;;10.29;100.00
62124;BME280;48110;47.532;19.078;2023-02-19T15:22:04;100349.09;;;10.31;100.00
62124;BME280;48110;47.532;19.078;2023-02-19T15:25:12;100347.59;;;10.36;100.00
62124;BME280;48110;47.532;19.078;2023-02-19T15:31:28;100329.03;;;10.44;100.00
62124;BME280;48110;47.532;19.078;2023-02-19T15:34:38;100328.87;;;10.38;100.00
62124;BME280;48110;47.532;19.078;2023-02-19T15:37:47;100327.56;;;10.18;100.00
62124;BME280;48110;47.532;19.078;2023-02-19T15:40:56;100312.31;;;10.20;100.00
62124;BME280;48110;47.532;19.078;2023-02-19T15:50:42;100319.59;;;10.10;100.00
62124;BME280;48110;47.532;19.078;2023-02-19T15:53:53;100331.16;;;10.09;100.00
62124;BME280;48110;47.532;19.078;2023-02-19T15:57:05;100321.56;;;10.08;100.00
62124;BME280;48110;47.532;19.078;2023-02-19T16:03:22;100345.47;;;10.16;100.00
62124;BME280;48110;47.532;19.078;2023-02-19T16:06:29;100356.69;;;10.01;100.00
62124;BME280;48110;47.532;19.078;2023-02-19T16:09:36;100358.66;;;9.99;100.00
62124;BME280;48110;47.532;19.078;2023-02-19T16:12:53;100365.78;;;10.07;100.00
62124;BME280;48110;47.532;19.078;2023-02-19T16:16:21;100356.69;;;10.01;100.00
62124;BME280;48110;47.532;19.078;2023-02-19T16:19:25;100362.66;;;9.95;100.00
62124;BME280;48110;47.532;19.078;2023-02-19T16:22:34;100368.09;;;9.94;100.00
62124;BME280;48110;47.532;19.078;2023-02-19T16:25:56;100379.03;;;9.91;100.00
62124;BME280;48110;47.532;19.078;2023-02-19T16:29:03;100384.97;;;9.93;100.00
62124;BME280;48110;47.532;19.078;2023-02-19T16:32:14;100365.94;;;9.89;100.00
62124;BME280;48110;47.532;19.078;2023-02-19T16:35:36;100400.69;;;9.78;100.00
62124;BME280;48110;47.532;19.078;2023-02-19T16:42:14;100423.47;;;9.21;100.00
62124;BME280;48110;47.532;19.078;2023-02-19T16:45:23;100421.84;;;8.68;100.00
62124;BME280;48110;47.532;19.078;2023-02-19T16:48:31;100430.41;;;8.27;100.00
62124;BME280;48110;47.532;19.078;2023-02-19T16:51:40;100410.63;;;8.13;100.00
62124;BME280;48110;47.532;19.078;2023-02-19T16:54:46;100400.88;;;8.14;100.00
62124;BME280;48110;47.532;19.078;2023-02-19T16:57:53;100411.25;;;8.07;100.00
62124;BME280;48110;47.532;19.078;2023-02-19T17:01:01;100407.75;;;8.07;100.00
62124;BME280;48110;47.532;19.078;2023-02-19T17:04:10;100411.06;;;8.09;100.00
62124;BME280;48110;47.532;19.078;2023-02-19T17:07:20;100433.34;;;8.06;100.00
62124;BME280;48110;47.532;19.078;2023-02-19T17:10:28;100435.28;;;8.04;100.00
62124;BME280;48110;47.532;19.078;2023-02-19T17:13:34;100433.94;;;8.00;100.00
62124;BME280;48110;47.532;19.078;2023-02-19T17:16:41;100447.16;;;8.00;100.00
62124;BME280;48110;47.532;19.078;2023-02-19T17:19:50;100447.00;;;8.02;100.00
62124;BME280;48110;47.532;19.078;2023-02-19T17:22:59;100440.69;;;8.12;100.00
62124;BME280;48110;47.532;19.078;2023-02-19T17:26:06;100439.31;;;8.08;100.00
62124;BME280;48110;47.532;19.078;2023-02-19T17:29:13;100429.56;;;8.09;100.00
62124;BME280;48110;47.532;19.078;2023-02-19T17:32:21;100453.44;;;8.17;100.00
62124;BME280;48110;47.532;19.078;2023-02-19T17:35:27;100453.91;;;8.12;100.00
62124;BME280;48110;47.532;19.078;2023-02-19T17:38:35;100464.59;;;8.11;100.00
62124;BME280;48110;47.532;19.078;2023-02-19T17:41:45;100448.81;;;8.19;100.00
62124;BME280;48110;47.532;19.078;2023-02-19T17:44:53;100461.66;;;8.14;100.00
62124;BME280;48110;47.532;19.078;2023-02-19T17:48:00;100478.41;;;8.05;100.00
62124;BME280;48110;47.532;19.078;2023-02-19T17:51:10;100471.37;;;8.13;100.00
62124;BME280;48110;47.532;19.078;2023-02-19T17:54:16;100488.63;;;8.17;100.00
62124;BME280;48110;47.532;19.078;2023-02-19T17:57:24;100471.03;;;8.08;100.00
62124;BME280;48110;47.532;19.078;2023-02-19T18:00:31;100488.84;;;8.06;100.00
62124;BME280;48110;47.532;19.078;2023-02-19T18:03:41;100490.78;;;8.04;100.00
62124;BME280;48110;47.532;19.078;2023-02-19T18:06:49;100496.00;;;8.14;100.00
62124;BME280;48110;47.532;19.078;2023-02-19T18:09:59;100509.31;;;8.22;100.00
62124;BME280;48110;47.532;19.078;2023-02-19T18:13:06;100510.16;;;8.22;100.00
62124;BME280;48110;47.532;19.078;2023-02-19T18:16:14;100517.91;;;8.24;100.00
62124;BME280;48110;47.532;19.078;2023-02-19T18:19:23;100513.66;;;8.13;100.00